Time;durP1;ratioP1;P1;durP2;ratioP2;P2;SDS_P1;SDS_P2;PMS_P1;PMS_P2;Temp;Humidity;BMP_temperature;BMP_pressure;BME280_temperature;BME280_humidity;BME280_pressure;Samples;Min_cycle;Max_cycle;Signal;HPM_P1;HPM_P2
2023/05/15 00:00:20;;;;;;;2.70;2.53;;;15.90;86.20;16.10;95926.00;;;;5048855;28;20198;-81
2023/05/15 00:02:48;;;;;;;2.87;2.67;;;15.90;86.20;16.10;95922.00;;;;5062980;28;20284;-81
2023/05/15 00:05:15;;;;;;;2.97;2.77;;;15.90;86.40;16.10;95916.00;;;;5069315;28;20275;-82
2023/05/15 00:07:42;;;;;;;3.07;2.87;;;15.90;86.40;16.10;95922.00;;;;5056738;28;20228;-82
2023/05/15 00:10:10;;;;;;;2.83;2.63;;;15.90;86.40;16.10;95921.00;;;;5057239;28;20672;-82
2023/05/15 00:12:37;;;;;;;2.73;2.53;;;15.90;86.40;16.10;95916.00;;;;5057578;28;20205;-84
2023/05/15 00:15:06;;;;;;;2.90;2.70;;;15.90;87.20;16.10;95924.00;;;;5057218;28;20197;-83
2023/05/15 00:17:35;;;;;;;2.77;2.60;;;15.90;86.40;16.10;95916.00;;;;5057027;28;20719;-82
2023/05/15 00:20:03;;;;;;;2.70;2.53;;;15.90;86.50;16.10;95923.00;;;;5039672;28;20379;-85
2023/05/15 00:22:31;;;;;;;2.50;2.30;;;15.90;86.70;16.10;95916.00;;;;5067342;28;20683;-82
2023/05/15 00:24:59;;;;;;;2.60;2.40;;;15.90;86.70;16.10;95918.00;;;;5071122;28;20199;-82
2023/05/15 00:27:26;;;;;;;3.03;2.83;;;15.90;86.70;16.10;95920.00;;;;5047736;28;20219;-82
2023/05/15 00:29:54;;;;;;;2.60;2.40;;;15.90;86.70;16.10;95917.00;;;;5058811;28;20264;-82
2023/05/15 00:32:21;;;;;;;2.67;2.47;;;15.90;86.60;16.10;95912.00;;;;5056661;28;20221;-82
2023/05/15 00:34:50;;;;;;;3.13;2.93;;;15.90;86.60;16.10;95920.00;;;;5057087;28;20193;-82
2023/05/15 00:37:17;;;;;;;3.07;2.87;;;15.90;86.50;16.10;95916.00;;;;5036516;28;20741;-82
2023/05/15 00:39:44;;;;;;;2.93;2.67;;;15.90;86.50;16.10;95911.00;;;;5045255;28;20205;-81
2023/05/15 00:42:13;;;;;;;3.10;2.90;;;15.90;86.50;16.10;95906.00;;;;5064362;28;20567;-82
2023/05/15 00:44:43;;;;;;;2.77;2.57;;;15.90;86.30;16.10;95910.00;;;;5070313;28;20637;-82
2023/05/15 00:47:12;;;;;;;2.90;2.70;;;15.90;86.30;16.10;95902.00;;;;5057053;28;20299;-82
2023/05/15 00:49:41;;;;;;;3.20;3.00;;;15.90;86.30;16.10;95891.00;;;;5038795;28;20284;-81
2023/05/15 00:52:12;;;;;;;3.00;2.80;;;15.90;86.30;16.10;95897.00;;;;5055548;28;20637;-82
2023/05/15 00:54:40;;;;;;;3.23;3.00;;;15.90;85.80;16.10;95890.00;;;;5063495;28;20267;-82
2023/05/15 00:57:10;;;;;;;3.30;3.10;;;15.90;85.80;16.00;95897.00;;;;5064253;28;20219;-82
2023/05/15 00:59:40;;;;;;;3.67;3.00;;;15.90;85.90;16.00;95897.00;;;;5038549;28;20627;-82
2023/05/15 01:02:07;;;;;;;2.90;2.70;;;15.90;85.90;16.00;95901.00;;;;5037433;28;20279;-82
2023/05/15 01:04:35;;;;;;;3.63;3.40;;;15.80;85.70;16.00;95896.00;;;;5055917;28;20289;-82
2023/05/15 01:07:02;;;;;;;3.63;3.33;;;15.80;85.70;16.00;95895.00;;;;5038819;22;20220;-80
2023/05/15 01:09:34;;;;;;;3.33;3.13;;;15.80;85.80;16.00;95892.00;;;;5031875;28;20211;-79
2023/05/15 01:12:04;;;;;;;3.33;3.03;;;15.80;85.90;15.90;95888.00;;;;5056862;28;20283;-81
2023/05/15 01:14:31;;;;;;;3.60;3.30;;;15.80;86.10;15.90;95882.00;;;;5053310;28;20284;-80
2023/05/15 01:16:59;;;;;;;3.30;3.10;;;15.80;85.90;15.90;95879.00;;;;5056137;28;20232;-80
2023/05/15 01:19:26;;;;;;;3.83;3.43;;;15.70;85.90;15.90;95880.00;;;;5072457;28;20196;-81
2023/05/15 01:22:39;;;;;;;3.53;3.33;;;15.70;85.90;15.90;95877.00;;;;5035999;28;20266;-81
2023/05/15 01:25:54;;;;;;;3.37;3.17;;;15.70;85.20;15.80;95884.00;;;;5052192;28;20264;-82
2023/05/15 01:28:33;;;;;;;2.97;2.77;;;15.70;85.10;15.80;95878.00;;;;5051535;28;20251;-82
2023/05/15 01:31:16;;;;;;;3.07;2.80;;;15.70;86.10;15.80;95874.00;;;;5039962;28;20235;-82
2023/05/15 01:33:46;;;;;;;3.47;3.27;;;15.70;85.70;15.80;95884.00;;;;5035582;28;20569;-82
2023/05/15 01:36:22;;;;;;;3.07;2.80;;;15.70;85.90;15.80;95879.00;;;;5055593;28;20199;-82
2023/05/15 01:38:54;;;;;;;3.00;2.80;;;15.60;85.60;15.80;95881.00;;;;5029607;28;20720;-83
2023/05/15 01:41:27;;;;;;;3.07;2.87;;;15.60;85.80;15.80;95889.00;;;;5017571;28;20577;-83
2023/05/15 01:44:02;;;;;;;3.27;3.00;;;15.60;86.00;15.80;95886.00;;;;5022280;28;20283;-82
2023/05/15 01:46:31;;;;;;;3.27;3.07;;;15.60;85.60;15.70;95886.00;;;;5020113;28;20281;-82
2023/05/15 01:49:03;;;;;;;3.37;3.17;;;15.60;85.60;15.70;95891.00;;;;5043057;28;20281;-82
2023/05/15 01:51:32;;;;;;;3.37;3.13;;;15.60;85.60;15.70;95890.00;;;;5017184;28;20228;-82
2023/05/15 01:54:00;;;;;;;3.30;3.10;;;15.50;85.70;15.70;95886.00;;;;5032497;28;20193;-82
2023/05/15 01:56:29;;;;;;;3.10;2.90;;;15.50;85.70;15.70;95895.00;;;;5029547;28;20201;-81
2023/05/15 01:59:00;;;;;;;3.77;3.47;;;15.50;86.00;15.70;95889.00;;;;5044317;28;20324;-79
2023/05/15 02:01:29;;;;;;;3.07;2.87;;;15.50;86.00;15.70;95890.00;;;;5020323;28;20292;-80
2023/05/15 02:03:56;;;;;;;3.70;3.40;;;15.50;86.10;15.70;95890.00;;;;5013024;28;20198;-79
2023/05/15 02:06:26;;;;;;;3.00;2.80;;;15.50;86.30;15.70;95889.00;;;;5045946;28;20189;-81
2023/05/15 02:08:56;;;;;;;3.10;2.90;;;15.50;86.20;15.70;95892.00;;;;5038272;28;20236;-82
2023/05/15 02:11:23;;;;;;;3.10;2.90;;;15.50;86.30;15.70;95891.00;;;;5040837;28;20314;-82
2023/05/15 02:13:52;;;;;;;3.60;3.30;;;15.50;86.30;15.70;95883.00;;;;5038102;28;20212;-83
2023/05/15 02:16:21;;;;;;;3.80;3.50;;;15.50;86.50;15.70;95884.00;;;;5023601;28;20296;-82
2023/05/15 02:18:48;;;;;;;3.77;3.40;;;15.50;87.20;15.70;95886.00;;;;5038612;28;20315;-82
2023/05/15 02:21:16;;;;;;;3.77;3.47;;;15.50;86.50;15.80;95885.00;;;;5033964;28;20207;-82
2023/05/15 02:23:43;;;;;;;3.50;3.30;;;15.50;87.30;15.80;95887.00;;;;4993313;28;20194;-82
2023/05/15 02:26:34;;;;;;;4.03;3.73;;;15.60;86.50;15.80;95887.00;;;;5029901;28;20201;-82
2023/05/15 02:29:15;;;;;;;3.33;3.13;;;15.60;86.10;15.80;95888.00;;;;5017665;28;20205;-82
2023/05/15 02:31:56;;;;;;;3.43;3.13;;;15.60;86.20;15.80;95893.00;;;;5039224;28;20228;-80
2023/05/15 02:34:32;;;;;;;4.20;3.90;;;15.60;86.20;15.80;95898.00;;;;5005866;28;20272;-80
2023/05/15 02:37:03;;;;;;;3.90;3.60;;;15.60;86.20;15.70;95891.00;;;;5030197;28;20222;-80
2023/05/15 02:39:33;;;;;;;4.00;3.70;;;15.60;86.20;15.70;95887.00;;;;5013915;28;20286;-81
2023/05/15 02:42:02;;;;;;;4.20;3.80;;;15.60;86.40;15.70;95880.00;;;;5019329;28;20228;-80
2023/05/15 02:44:31;;;;;;;4.20;3.80;;;15.50;86.20;15.70;95881.00;;;;5023620;28;20201;-82
2023/05/15 02:47:02;;;;;;;4.27;3.97;;;15.50;86.10;15.70;95882.00;;;;5021854;28;20220;-82
2023/05/15 02:49:29;;;;;;;3.83;3.50;;;15.60;86.20;15.70;95879.00;;;;5020210;28;20198;-80
2023/05/15 02:51:57;;;;;;;5.17;4.40;;;15.50;86.30;15.70;95872.00;;;;5051867;28;20217;-82
2023/05/15 02:54:25;;;;;;;4.60;4.20;;;15.50;86.20;15.70;95874.00;;;;5032309;28;20544;-83
2023/05/15 02:56:52;;;;;;;4.23;3.93;;;15.50;86.10;15.70;95873.00;;;;5029978;28;20219;-82
2023/05/15 02:59:19;;;;;;;4.20;3.80;;;15.50;86.00;15.60;95875.00;;;;5044483;28;20201;-82
2023/05/15 03:01:47;;;;;;;4.47;4.10;;;15.50;85.90;15.60;95867.00;;;;5053117;28;20201;-82
2023/05/15 03:04:16;;;;;;;5.03;4.63;;;15.50;86.10;15.60;95871.00;;;;5037530;28;20284;-82
2023/05/15 03:06:43;;;;;;;5.00;4.60;;;15.50;86.00;15.60;95869.00;;;;5030297;28;20284;-81
2023/05/15 03:09:10;;;;;;;4.40;4.07;;;15.50;86.10;15.60;95868.00;;;;5047247;28;20236;-83
2023/05/15 03:11:38;;;;;;;4.13;3.83;;;15.50;86.10;15.60;95874.00;;;;5056524;28;20224;-82
2023/05/15 03:14:05;;;;;;;3.53;3.23;;;15.50;86.10;15.60;95878.00;;;;5043487;28;20276;-81
2023/05/15 03:16:32;;;;;;;4.17;3.77;;;15.50;86.20;15.60;95881.00;;;;5020369;28;20583;-82
2023/05/15 03:19:00;;;;;;;4.93;4.53;;;15.50;86.20;15.60;95881.00;;;;5050374;28;20672;-82
2023/05/15 03:21:28;;;;;;;4.30;4.00;;;15.50;86.30;15.60;95876.00;;;;5042171;28;20568;-82
2023/05/15 03:23:56;;;;;;;4.20;3.90;;;15.50;86.40;15.60;95881.00;;;;5030368;28;20196;-81
2023/05/15 03:26:23;;;;;;;4.67;4.27;;;15.40;86.40;15.60;95874.00;;;;5041434;28;20196;-82
2023/05/15 03:28:50;;;;;;;3.97;3.67;;;15.50;86.40;15.60;95869.00;;;;5038430;28;20307;-81
2023/05/15 03:31:18;;;;;;;4.20;3.80;;;15.50;86.20;15.70;95879.00;;;;5025216;28;20200;-83
2023/05/15 03:33:48;;;;;;;4.43;4.07;;;15.50;86.30;15.70;95878.00;;;;5051458;28;20292;-83
2023/05/15 03:36:16;;;;;;;4.47;4.07;;;15.50;86.40;15.70;95873.00;;;;5034469;28;20251;-80
2023/05/15 03:38:45;;;;;;;4.53;4.13;;;15.50;86.50;15.70;95879.00;;;;5023097;28;20626;-80
2023/05/15 03:41:12;;;;;;;4.93;4.00;;;15.50;86.30;15.70;95883.00;;;;5042789;28;20280;-80
2023/05/15 03:43:40;;;;;;;3.70;3.40;;;15.50;86.30;15.70;95884.00;;;;5044808;28;20792;-80
2023/05/15 03:46:07;;;;;;;4.17;3.83;;;15.50;86.20;15.70;95884.00;;;;5045937;28;20199;-80
2023/05/15 03:48:34;;;;;;;4.50;4.10;;;15.50;86.20;15.70;95879.00;;;;5037951;28;20285;-79
2023/05/15 03:51:01;;;;;;;4.67;3.83;;;15.50;86.30;15.70;95882.00;;;;5027367;28;20287;-82
2023/05/15 03:53:29;;;;;;;4.70;4.30;;;15.50;86.20;15.70;95882.00;;;;5044685;28;20272;-82
2023/05/15 03:55:58;;;;;;;3.87;3.57;;;15.50;86.20;15.70;95886.00;;;;5028152;28;20285;-83
2023/05/15 03:58:25;;;;;;;4.63;4.23;;;15.50;86.00;15.70;95881.00;;;;5026480;28;20221;-83
2023/05/15 04:00:53;;;;;;;4.13;3.83;;;15.50;86.00;15.60;95882.00;;;;5047592;28;20615;-82
2023/05/15 04:03:20;;;;;;;3.73;3.43;;;15.50;86.00;15.60;95879.00;;;;5027608;28;20212;-81
2023/05/15 04:05:48;;;;;;;3.70;3.40;;;15.50;86.00;15.60;95878.00;;;;5032819;28;20197;-82
2023/05/15 04:08:16;;;;;;;3.40;3.10;;;15.50;86.00;15.60;95882.00;;;;5054640;28;20312;-82
2023/05/15 04:10:43;;;;;;;3.57;3.27;;;15.50;86.00;15.60;95886.00;;;;5000609;28;20207;-82
2023/05/15 04:13:12;;;;;;;4.03;3.73;;;15.50;86.10;15.60;95883.00;;;;5039144;28;20216;-82
2023/05/15 04:15:40;;;;;;;3.40;3.20;;;15.50;86.00;15.60;95886.00;;;;5040719;28;20693;-82
2023/05/15 04:18:08;;;;;;;3.57;3.27;;;15.50;86.00;15.60;95886.00;;;;5046684;28;20217;-83
2023/05/15 04:20:36;;;;;;;3.17;2.97;;;15.50;86.10;15.60;95882.00;;;;5037920;28;20215;-83
2023/05/15 04:23:04;;;;;;;3.63;3.33;;;15.50;86.20;15.70;95884.00;;;;5046833;28;20197;-83
2023/05/15 04:25:32;;;;;;;3.73;3.43;;;15.50;86.30;15.70;95888.00;;;;5054354;28;20288;-82
2023/05/15 04:28:00;;;;;;;4.07;3.77;;;15.50;86.40;15.70;95891.00;;;;5022707;28;20271;-83
2023/05/15 04:30:29;;;;;;;3.23;3.03;;;15.50;86.40;15.70;95890.00;;;;5006118;28;20201;-83
2023/05/15 04:32:56;;;;;;;3.57;3.37;;;15.50;86.40;15.80;95894.00;;;;5016321;28;20221;-84
2023/05/15 04:35:24;;;;;;;3.90;3.60;;;15.50;86.50;15.80;95894.00;;;;5040373;28;20626;-82
2023/05/15 04:37:51;;;;;;;3.37;3.13;;;15.50;86.40;15.80;95896.00;;;;5023661;28;20212;-83
2023/05/15 04:40:19;;;;;;;3.60;3.30;;;15.50;86.40;15.80;95891.00;;;;5003317;28;20194;-84
2023/05/15 04:42:46;;;;;;;3.73;3.43;;;15.50;86.50;15.80;95898.00;;;;5017723;28;20379;-80
2023/05/15 04:45:14;;;;;;;3.80;3.50;;;15.60;87.00;15.80;95894.00;;;;4987119;28;20199;-81
2023/05/15 04:47:43;;;;;;;3.40;3.20;;;15.60;85.90;15.80;95896.00;;;;5022474;28;20226;-81
2023/05/15 04:50:11;;;;;;;2.70;2.50;;;15.60;85.60;15.80;95898.00;;;;5043198;28;20729;-83
2023/05/15 04:52:38;;;;;;;4.23;3.83;;;15.60;85.60;15.80;95899.00;;;;5033476;28;20683;-82
2023/05/15 04:55:07;;;;;;;3.63;3.33;;;15.60;85.60;15.80;95898.00;;;;5051938;28;20295;-81
2023/05/15 04:57:35;;;;;;;4.07;3.77;;;15.50;85.70;15.80;95897.00;;;;5022559;28;20213;-83
2023/05/15 05:00:04;;;;;;;4.20;3.90;;;15.50;85.80;15.80;95906.00;;;;5040795;28;20291;-81
2023/05/15 05:02:31;;;;;;;4.17;3.70;;;15.60;85.80;15.80;95899.00;;;;5016829;28;20284;-82
2023/05/15 05:05:00;;;;;;;4.50;4.13;;;15.60;86.00;15.80;95899.00;;;;5022772;28;20219;-80
2023/05/15 05:07:28;;;;;;;5.27;4.20;;;15.50;85.90;15.90;95900.00;;;;5029294;28;20588;-82
2023/05/15 05:09:55;;;;;;;4.17;3.87;;;15.60;86.10;15.90;95910.00;;;;5042263;28;20283;-79
2023/05/15 05:12:24;;;;;;;4.73;4.33;;;15.60;86.10;15.90;95908.00;;;;5038819;28;20227;-81
2023/05/15 05:14:52;;;;;;;4.73;4.33;;;15.60;86.30;15.90;95906.00;;;;5029907;28;20197;-82
2023/05/15 05:17:19;;;;;;;4.63;4.13;;;15.60;86.30;15.90;95905.00;;;;5000961;28;20213;-82
2023/05/15 05:19:47;;;;;;;5.07;4.63;;;15.60;86.30;15.90;95908.00;;;;5032368;28;20204;-81
2023/05/15 05:22:16;;;;;;;4.87;4.47;;;15.60;86.30;15.90;95908.00;;;;5045775;28;20231;-80
2023/05/15 05:24:43;;;;;;;4.83;4.43;;;15.60;86.30;16.00;95909.00;;;;5011768;28;20236;-81
2023/05/15 05:27:11;;;;;;;4.80;4.40;;;15.60;86.20;15.90;95915.00;;;;5036565;28;20660;-80
2023/05/15 05:29:38;;;;;;;5.27;4.77;;;15.60;86.10;15.90;95919.00;;;;5046335;28;20205;-81
2023/05/15 05:32:07;;;;;;;4.77;4.37;;;15.60;86.20;15.90;95917.00;;;;5040997;28;20212;-80
2023/05/15 05:34:34;;;;;;;4.60;4.20;;;15.60;86.20;15.90;95921.00;;;;5041070;28;20201;-82
2023/05/15 05:37:02;;;;;;;5.10;4.67;;;15.60;86.20;15.90;95919.00;;;;5040378;28;20221;-83
2023/05/15 05:39:31;;;;;;;5.13;4.47;;;15.60;86.30;15.90;95924.00;;;;5053966;28;20201;-82
2023/05/15 05:41:59;;;;;;;5.90;5.30;;;15.70;86.30;15.90;95926.00;;;;5035861;28;20201;-82
2023/05/15 05:44:27;;;;;;;5.70;5.13;;;15.60;86.10;15.90;95929.00;;;;5036168;28;20197;-83
2023/05/15 05:46:54;;;;;;;5.57;5.10;;;15.70;86.40;15.90;95932.00;;;;5018724;28;20223;-83
2023/05/15 05:49:22;;;;;;;5.17;4.67;;;15.60;86.50;15.90;95930.00;;;;5040039;28;20706;-83
2023/05/15 05:51:49;;;;;;;6.63;6.03;;;15.60;86.50;15.90;95922.00;;;;5020978;28;20640;-82
2023/05/15 05:54:17;;;;;;;5.97;5.47;;;15.60;86.60;15.90;95924.00;;;;5038565;28;20304;-82
2023/05/15 05:56:46;;;;;;;6.03;5.43;;;15.60;86.60;15.90;95925.00;;;;5046689;28;20198;-80
2023/05/15 05:59:15;;;;;;;6.73;6.07;;;15.60;86.80;15.90;95940.00;;;;5038302;28;20205;-80
2023/05/15 06:01:43;;;;;;;6.80;5.83;;;15.60;87.10;15.90;95931.00;;;;5036996;28;20284;-80
2023/05/15 06:04:10;;;;;;;5.77;5.27;;;15.60;87.20;15.90;95931.00;;;;5030475;28;20193;-81
2023/05/15 06:06:37;;;;;;;6.53;5.93;;;15.60;87.40;15.90;95925.00;;;;5047085;28;20296;-81
2023/05/15 06:09:05;;;;;;;5.60;5.10;;;15.60;87.50;15.90;95931.00;;;;5025401;28;20586;-79
2023/05/15 06:11:33;;;;;;;5.80;5.30;;;15.60;87.60;15.90;95928.00;;;;5046819;28;20587;-79
2023/05/15 06:14:02;;;;;;;6.40;5.77;;;15.70;87.70;15.90;95929.00;;;;5049702;28;20232;-78
2023/05/15 06:16:30;;;;;;;6.40;5.80;;;15.70;87.80;15.90;95929.00;;;;5046125;28;20280;-78
2023/05/15 06:18:57;;;;;;;6.63;6.03;;;15.70;87.80;15.90;95926.00;;;;5052038;28;20203;-81
2023/05/15 06:21:25;;;;;;;6.33;5.70;;;15.70;87.50;15.90;95928.00;;;;5044425;28;20280;-81
2023/05/15 06:23:52;;;;;;;6.47;5.87;;;15.70;87.40;15.90;95926.00;;;;5061959;28;20287;-81
2023/05/15 06:26:20;;;;;;;6.57;5.97;;;15.60;87.40;15.90;95928.00;;;;5045106;28;20197;-81
2023/05/15 06:28:48;;;;;;;7.00;6.30;;;15.70;87.60;16.00;95925.00;;;;5016378;28;20686;-83
2023/05/15 06:31:17;;;;;;;6.60;5.97;;;15.70;87.50;16.00;95927.00;;;;5033999;28;20272;-83
2023/05/15 06:33:44;;;;;;;6.33;5.73;;;15.70;87.60;16.00;95930.00;;;;5017205;28;20713;-83
2023/05/15 06:36:11;;;;;;;7.53;6.43;;;15.70;87.50;16.00;95933.00;;;;5040293;28;20633;-82
2023/05/15 06:38:39;;;;;;;7.30;6.60;;;15.70;87.40;16.00;95943.00;;;;5035247;28;20312;-81
2023/05/15 06:41:06;;;;;;;7.33;6.63;;;15.70;87.50;16.00;95939.00;;;;5056351;28;20193;-82
2023/05/15 06:43:33;;;;;;;6.23;5.63;;;15.70;87.60;16.00;95940.00;;;;5044609;28;20300;-84
2023/05/15 06:46:01;;;;;;;8.03;7.33;;;15.70;87.70;16.10;95939.00;;;;5033058;28;20678;-84
2023/05/15 06:48:29;;;;;;;8.23;6.77;;;15.80;87.90;16.10;95942.00;;;;5035330;28;20582;-81
2023/05/15 06:50:57;;;;;;;7.60;6.90;;;15.80;88.10;16.10;95951.00;;;;5049839;28;20224;-84
2023/05/15 06:53:24;;;;;;;8.83;7.33;;;15.80;88.10;16.20;95944.00;;;;5017714;28;20295;-82
2023/05/15 06:55:51;;;;;;;9.17;7.80;;;15.80;87.80;16.20;95942.00;;;;5030055;28;20725;-84
2023/05/15 06:58:19;;;;;;;8.30;7.07;;;15.90;87.60;16.10;95943.00;;;;5002368;28;20226;-81
2023/05/15 07:00:47;;;;;;;8.00;7.13;;;15.80;87.60;16.10;95943.00;;;;5017413;28;20553;-83
2023/05/15 07:03:15;;;;;;;8.53;6.90;;;15.90;87.70;16.20;95948.00;;;;5020871;28;20198;-83
2023/05/15 07:05:45;;;;;;;8.63;7.60;;;15.90;87.70;16.20;95949.00;;;;5008572;28;20196;-82
2023/05/15 07:08:13;;;;;;;8.57;7.43;;;15.90;88.20;16.20;95941.00;;;;5015085;23;20221;-79
2023/05/15 07:10:40;;;;;;;8.07;7.20;;;15.90;87.40;16.20;95947.00;;;;5051743;28;20200;-80
2023/05/15 07:13:07;;;;;;;8.50;7.30;;;15.90;87.50;16.20;95941.00;;;;5048157;28;20228;-80
2023/05/15 07:15:34;;;;;;;8.13;7.20;;;15.90;87.50;16.30;95947.00;;;;5052695;28;20571;-79
2023/05/15 07:18:02;;;;;;;7.33;6.53;;;15.90;87.60;16.30;95944.00;;;;5040028;28;20235;-79
2023/05/15 07:20:29;;;;;;;8.20;6.83;;;16.00;87.70;16.40;95952.00;;;;5022025;28;20198;-79
2023/05/15 07:22:58;;;;;;;7.37;6.60;;;16.00;87.90;16.40;95949.00;;;;5049598;28;20718;-79
2023/05/15 07:25:25;;;;;;;7.10;6.40;;;16.10;88.10;16.50;95946.00;;;;5034732;28;20196;-79
2023/05/15 07:27:52;;;;;;;7.97;7.17;;;16.10;88.30;16.60;95954.00;;;;5032549;28;20606;-80
2023/05/15 07:30:20;;;;;;;8.13;7.27;;;16.20;88.20;16.60;95955.00;;;;5025461;28;20197;-79
2023/05/15 07:32:47;;;;;;;9.10;7.30;;;16.20;88.20;16.70;95947.00;;;;5035012;28;20198;-79
2023/05/15 07:35:14;;;;;;;8.47;7.43;;;16.20;88.30;16.70;95946.00;;;;5041117;28;20252;-79
2023/05/15 07:37:41;;;;;;;8.33;7.53;;;16.30;88.30;16.70;95945.00;;;;5049282;28;20299;-79
2023/05/15 07:40:11;;;;;;;7.50;6.70;;;16.30;88.10;16.80;95951.00;;;;5037953;28;20654;-79
2023/05/15 07:42:39;;;;;;;7.23;6.53;;;16.30;88.10;16.80;95948.00;;;;5029407;28;20288;-79
2023/05/15 07:45:08;;;;;;;8.07;7.27;;;16.40;88.40;16.90;95953.00;;;;5038898;28;20193;-79
2023/05/15 07:47:35;;;;;;;8.50;7.13;;;16.40;88.30;16.90;95952.00;;;;5029740;28;20232;-80
2023/05/15 07:50:03;;;;;;;8.80;7.47;;;16.50;88.20;17.00;95954.00;;;;5031718;28;20262;-79
2023/05/15 07:52:30;;;;;;;7.10;6.40;;;16.50;88.00;17.00;95953.00;;;;5029144;28;20201;-80
2023/05/15 07:54:58;;;;;;;7.17;6.47;;;16.50;88.00;17.10;95953.00;;;;5034564;28;20220;-79
2023/05/15 07:57:26;;;;;;;7.13;6.43;;;16.60;88.20;17.10;95953.00;;;;5046563;28;20208;-79
2023/05/15 07:59:53;;;;;;;7.07;6.37;;;16.60;88.40;17.10;95957.00;;;;5035494;28;20200;-79
2023/05/15 08:02:20;;;;;;;6.90;6.20;;;16.70;88.30;17.20;95950.00;;;;5052290;28;20201;-79
2023/05/15 08:04:47;;;;;;;6.50;5.90;;;16.70;88.20;17.20;95954.00;;;;5025882;28;20201;-79
2023/05/15 08:07:15;;;;;;;6.67;5.97;;;16.80;88.20;17.30;95950.00;;;;5052024;28;20255;-79
2023/05/15 08:09:42;;;;;;;6.37;5.73;;;16.80;88.40;17.40;95956.00;;;;5017136;28;20381;-80
2023/05/15 08:12:20;;;;;;;6.27;5.67;;;16.90;88.70;17.50;95951.00;;;;5049342;28;20193;-80
2023/05/15 08:14:50;;;;;;;6.20;5.60;;;17.00;88.80;17.60;95950.00;;;;5043840;28;20212;-79
2023/05/15 08:17:19;;;;;;;5.80;5.23;;;17.10;89.10;17.70;95962.00;;;;5040231;28;20219;-79
2023/05/15 08:19:47;;;;;;;5.83;5.33;;;17.10;88.70;17.70;95967.00;;;;5015300;28;20193;-79
2023/05/15 08:22:15;;;;;;;5.63;5.13;;;17.20;88.50;17.80;95966.00;;;;5046315;28;20197;-79
2023/05/15 08:24:43;;;;;;;5.40;4.90;;;17.30;88.40;17.80;95965.00;;;;5016185;28;20212;-79
2023/05/15 08:27:10;;;;;;;5.20;4.80;;;17.30;88.30;17.90;95956.00;;;;5042828;28;20299;-80
2023/05/15 08:29:39;;;;;;;4.60;4.30;;;17.40;88.40;18.00;95963.00;;;;5035522;28;20245;-79
2023/05/15 08:32:10;;;;;;;5.27;4.83;;;17.50;88.40;18.20;95964.00;;;;5041508;28;20215;-80
2023/05/15 08:34:37;;;;;;;5.23;4.77;;;17.50;88.10;18.30;95964.00;;;;5053872;28;20227;-79
2023/05/15 08:37:06;;;;;;;5.30;4.90;;;17.60;88.40;18.40;95966.00;;;;5010250;28;20244;-79
2023/05/15 08:39:33;;;;;;;5.87;5.37;;;17.70;88.80;18.60;95974.00;;;;5045561;28;20201;-80
2023/05/15 08:42:10;;;;;;;5.27;4.87;;;17.80;88.90;18.70;95970.00;;;;5051521;28;20228;-80
2023/05/15 08:44:39;;;;;;;5.30;4.90;;;17.90;88.70;18.80;95972.00;;;;5028676;28;20568;-79
2023/05/15 08:47:08;;;;;;;5.80;5.30;;;18.00;88.80;18.90;95962.00;;;;5055861;28;20217;-80
2023/05/15 08:49:48;;;;;;;5.13;4.63;;;18.20;88.60;19.00;95972.00;;;;5047300;28;20197;-80
2023/05/15 08:52:16;;;;;;;4.73;4.40;;;18.20;87.90;19.20;95965.00;;;;5037087;28;20724;-80
2023/05/15 08:54:43;;;;;;;5.00;4.60;;;18.40;88.50;19.40;95959.00;;;;5042033;28;20282;-80
2023/05/15 08:57:11;;;;;;;4.60;4.30;;;18.50;88.80;19.60;95959.00;;;;5051531;28;20295;-79
2023/05/15 08:59:38;;;;;;;4.37;4.03;;;18.60;89.10;19.80;95963.00;;;;5050787;28;20211;-80
2023/05/15 09:02:07;;;;;;;4.37;4.07;;;18.80;88.80;20.10;95959.00;;;;5052909;28;20261;-80
2023/05/15 09:04:35;;;;;;;4.57;4.17;;;18.90;88.30;20.20;95960.00;;;;5053577;28;20719;-80
2023/05/15 09:07:05;;;;;;;5.57;4.47;;;19.10;88.00;20.40;95951.00;;;;5057697;28;20216;-80
2023/05/15 09:09:34;;;;;;;4.20;3.90;;;19.20;88.20;20.70;95944.00;;;;5060181;28;20238;-83
2023/05/15 09:12:02;;;;;;;3.97;3.67;;;19.40;88.90;21.00;95944.00;;;;5049944;28;20198;-80
2023/05/15 09:14:30;;;;;;;4.30;4.00;;;19.60;88.90;21.30;95941.00;;;;5041014;28;20593;-80
2023/05/15 09:16:58;;;;;;;4.13;3.83;;;19.80;89.50;21.50;95941.00;;;;5029441;28;20196;-81
2023/05/15 09:19:28;;;;;;;4.13;3.83;;;20.10;88.80;21.60;95941.00;;;;5049142;28;20193;-80
2023/05/15 09:21:55;;;;;;;4.17;3.87;;;20.30;87.20;21.70;95944.00;;;;5029457;28;20199;-80
2023/05/15 09:24:27;;;;;;;3.93;3.63;;;20.40;88.20;22.00;95933.00;;;;5013845;28;20211;-81
2023/05/15 09:27:05;;;;;;;3.80;3.50;;;20.70;88.90;22.40;95935.00;;;;5031049;28;20331;-81
2023/05/15 09:29:34;;;;;;;3.90;3.60;;;20.90;87.60;22.70;95941.00;;;;5036564;28;20212;-81
2023/05/15 09:32:04;;;;;;;3.40;3.20;;;21.20;88.80;22.80;95938.00;;;;5047915;28;20190;-81
2023/05/15 09:34:34;;;;;;;3.20;3.00;;;21.40;87.00;22.80;95930.00;;;;5019376;28;20229;-81
2023/05/15 09:37:05;;;;;;;3.30;3.10;;;21.50;85.40;22.70;95935.00;;;;5042075;28;20217;-81
2023/05/15 09:39:33;;;;;;;3.30;3.10;;;21.60;83.90;22.60;95918.00;;;;5044229;28;20204;-81
2023/05/15 09:42:08;;;;;;;3.43;3.23;;;21.70;83.40;22.50;95926.00;;;;5019589;28;20201;-81
2023/05/15 09:44:35;;;;;;;3.47;3.27;;;21.70;81.00;22.40;95930.00;;;;5040939;28;20283;-80
2023/05/15 09:47:05;;;;;;;3.57;3.10;;;21.70;81.80;22.20;95925.00;;;;5022302;28;20247;-81
2023/05/15 09:49:34;;;;;;;2.77;2.57;;;21.60;81.00;22.10;95921.00;;;;5040614;28;20285;-81
2023/05/15 09:52:02;;;;;;;3.17;2.97;;;21.60;79.60;22.00;95929.00;;;;5040745;28;20336;-81
2023/05/15 09:54:31;;;;;;;3.17;2.90;;;21.50;79.40;21.90;95923.00;;;;5046436;28;20723;-80
2023/05/15 09:57:08;;;;;;;3.40;3.20;;;21.40;78.30;21.70;95924.00;;;;5039847;28;20646;-81
2023/05/15 09:59:36;;;;;;;3.20;3.00;;;21.30;76.80;21.50;95924.00;;;;5039036;28;20197;-81
2023/05/15 10:02:03;;;;;;;3.50;3.30;;;21.20;78.10;21.40;95931.00;;;;5039296;28;20205;-81
2023/05/15 10:04:36;;;;;;;3.23;3.03;;;21.10;78.20;21.20;95928.00;;;;5057000;28;20741;-81
2023/05/15 10:07:03;;;;;;;2.97;2.77;;;21.00;78.00;21.10;95925.00;;;;5037272;28;20216;-81
2023/05/15 10:09:31;;;;;;;3.00;2.80;;;20.90;78.80;21.10;95914.00;;;;5038392;28;20207;-80
2023/05/15 10:11:59;;;;;;;2.73;2.53;;;20.80;79.20;21.10;95915.00;;;;5037153;28;20651;-81
2023/05/15 10:14:30;;;;;;;2.83;2.63;;;20.80;80.00;21.10;95916.00;;;;5019032;28;20319;-80
2023/05/15 10:16:58;;;;;;;3.30;3.10;;;20.70;79.30;21.10;95916.00;;;;5040480;28;20206;-80
2023/05/15 10:19:28;;;;;;;3.00;2.80;;;20.70;80.10;21.30;95908.00;;;;5028778;28;20284;-81
2023/05/15 10:21:59;;;;;;;2.60;2.50;;;20.80;81.60;21.40;95907.00;;;;5044747;28;20612;-81
2023/05/15 10:24:30;;;;;;;3.10;2.90;;;20.90;81.30;21.50;95902.00;;;;5043935;28;20667;-81
2023/05/15 10:26:58;;;;;;;3.03;2.83;;;21.00;81.70;21.50;95901.00;;;;5034250;28;20289;-81
2023/05/15 10:29:28;;;;;;;2.97;2.70;;;21.00;81.50;21.50;95898.00;;;;5045490;28;20204;-80
2023/05/15 10:31:57;;;;;;;3.20;3.00;;;21.10;80.00;21.40;95894.00;;;;5018820;28;20847;-80
2023/05/15 10:34:25;;;;;;;2.73;2.57;;;21.10;79.40;21.30;95891.00;;;;5040056;28;20245;-80
2023/05/15 10:36:54;;;;;;;2.93;2.70;;;21.00;78.80;21.30;95890.00;;;;5041647;28;20717;-81
2023/05/15 10:39:24;;;;;;;2.90;2.70;;;21.00;78.50;21.30;95882.00;;;;5057831;28;20546;-81
2023/05/15 10:41:54;;;;;;;2.87;2.57;;;21.00;77.90;21.20;95884.00;;;;5034139;28;20196;-81
2023/05/15 10:44:23;;;;;;;3.07;2.63;;;20.90;77.90;21.20;95879.00;;;;5046129;28;20736;-81
2023/05/15 10:46:51;;;;;;;3.10;2.90;;;20.90;78.30;21.30;95879.00;;;;5016536;28;20622;-80
2023/05/15 10:49:19;;;;;;;3.17;2.97;;;20.90;79.00;21.40;95881.00;;;;5034307;28;20193;-81
2023/05/15 10:51:46;;;;;;;3.40;3.20;;;20.90;79.30;21.50;95873.00;;;;5018752;28;20204;-81
2023/05/15 10:54:14;;;;;;;3.67;3.37;;;21.00;78.70;21.70;95878.00;;;;5039788;28;20319;-80
2023/05/15 10:56:43;;;;;;;3.20;3.00;;;21.00;77.80;21.80;95875.00;;;;5050156;28;20212;-81
2023/05/15 10:59:11;;;;;;;3.20;3.00;;;21.10;78.20;21.80;95869.00;;;;5048690;28;20200;-81
2023/05/15 11:01:40;;;;;;;3.03;2.83;;;21.20;78.30;21.90;95870.00;;;;5037778;28;20264;-81